sensor_id;sensor_type;location;lat;lon;timestamp;P1;durP1;ratioP1;P2;durP2;ratioP2
55053;SDS011;40954;45.668;18.980;2022-12-16T00:02:19;54.35;;;35.92;;
55053;SDS011;40954;45.668;18.980;2022-12-16T00:04:45;60.95;;;40.83;;
55053;SDS011;40954;45.668;18.980;2022-12-16T00:07:11;69.72;;;45.85;;
55053;SDS011;40954;45.668;18.980;2022-12-16T00:09:37;68.53;;;43.35;;
55053;SDS011;40954;45.668;18.980;2022-12-16T00:12:03;61.58;;;40.80;;
55053;SDS011;40954;45.668;18.980;2022-12-16T00:14:29;54.78;;;38.10;;
55053;SDS011;40954;45.668;18.980;2022-12-16T00:16:55;53.47;;;35.78;;
55053;SDS011;40954;45.668;18.980;2022-12-16T00:19:21;51.33;;;34.92;;
55053;SDS011;40954;45.668;18.980;2022-12-16T00:21:48;49.45;;;33.92;;
55053;SDS011;40954;45.668;18.980;2022-12-16T00:24:14;47.78;;;31.85;;
55053;SDS011;40954;45.668;18.980;2022-12-16T00:26:40;49.75;;;34.30;;
55053;SDS011;40954;45.668;18.980;2022-12-16T00:29:06;49.78;;;33.03;;
55053;SDS011;40954;45.668;18.980;2022-12-16T00:31:35;38.88;;;27.95;;
55053;SDS011;40954;45.668;18.980;2022-12-16T00:34:01;41.92;;;27.67;;
55053;SDS011;40954;45.668;18.980;2022-12-16T00:36:27;38.97;;;27.35;;
55053;SDS011;40954;45.668;18.980;2022-12-16T00:38:53;36.53;;;26.75;;
55053;SDS011;40954;45.668;18.980;2022-12-16T00:41:19;39.17;;;26.98;;
55053;SDS011;40954;45.668;18.980;2022-12-16T00:43:45;39.50;;;26.70;;
55053;SDS011;40954;45.668;18.980;2022-12-16T00:46:11;42.67;;;28.27;;
55053;SDS011;40954;45.668;18.980;2022-12-16T00:48:37;35.83;;;26.95;;
55053;SDS011;40954;45.668;18.980;2022-12-16T00:51:03;38.47;;;26.70;;
55053;SDS011;40954;45.668;18.980;2022-12-16T00:53:29;34.65;;;25.95;;
55053;SDS011;40954;45.668;18.980;2022-12-16T00:56:08;40.88;;;27.38;;
55053;SDS011;40954;45.668;18.980;2022-12-16T00:58:35;38.53;;;26.92;;
55053;SDS011;40954;45.668;18.980;2022-12-16T01:01:02;37.80;;;26.95;;
55053;SDS011;40954;45.668;18.980;2022-12-16T01:03:28;41.05;;;28.50;;
55053;SDS011;40954;45.668;18.980;2022-12-16T01:05:54;37.42;;;27.60;;
55053;SDS011;40954;45.668;18.980;2022-12-16T01:08:20;41.08;;;27.58;;
55053;SDS011;40954;45.668;18.980;2022-12-16T01:10:50;39.75;;;29.10;;
55053;SDS011;40954;45.668;18.980;2022-12-16T01:13:16;41.83;;;28.95;;
55053;SDS011;40954;45.668;18.980;2022-12-16T01:15:42;36.85;;;27.33;;
55053;SDS011;40954;45.668;18.980;2022-12-16T01:18:08;38.80;;;28.45;;
55053;SDS011;40954;45.668;18.980;2022-12-16T01:20:35;39.65;;;28.10;;
55053;SDS011;40954;45.668;18.980;2022-12-16T01:23:02;40.33;;;28.02;;
55053;SDS011;40954;45.668;18.980;2022-12-16T01:25:28;46.25;;;28.35;;
55053;SDS011;40954;45.668;18.980;2022-12-16T01:27:54;39.92;;;27.52;;
55053;SDS011;40954;45.668;18.980;2022-12-16T01:30:20;41.85;;;28.75;;
55053;SDS011;40954;45.668;18.980;2022-12-16T01:32:46;39.00;;;28.33;;
55053;SDS011;40954;45.668;18.980;2022-12-16T01:35:12;41.35;;;29.20;;
55053;SDS011;40954;45.668;18.980;2022-12-16T01:37:38;40.10;;;29.67;;
55053;SDS011;40954;45.668;18.980;2022-12-16T01:40:05;40.45;;;29.40;;
55053;SDS011;40954;45.668;18.980;2022-12-16T01:42:31;37.55;;;27.02;;
55053;SDS011;40954;45.668;18.980;2022-12-16T01:45:20;38.45;;;26.08;;
55053;SDS011;40954;45.668;18.980;2022-12-16T01:47:43;42.65;;;28.17;;
55053;SDS011;40954;45.668;18.980;2022-12-16T01:50:10;39.40;;;28.52;;
55053;SDS011;40954;45.668;18.980;2022-12-16T01:52:41;41.83;;;27.95;;
55053;SDS011;40954;45.668;18.980;2022-12-16T01:55:22;40.22;;;27.10;;
55053;SDS011;40954;45.668;18.980;2022-12-16T01:57:52;37.17;;;25.88;;
55053;SDS011;40954;45.668;18.980;2022-12-16T02:00:20;38.03;;;27.13;;
55053;SDS011;40954;45.668;18.980;2022-12-16T02:02:46;39.03;;;26.83;;
55053;SDS011;40954;45.668;18.980;2022-12-16T02:05:13;36.72;;;25.98;;
55053;SDS011;40954;45.668;18.980;2022-12-16T02:10:20;37.80;;;25.83;;
55053;SDS011;40954;45.668;18.980;2022-12-16T02:18:35;43.22;;;25.67;;
55053;SDS011;40954;45.668;18.980;2022-12-16T02:27:21;39.10;;;26.50;;
55053;SDS011;40954;45.668;18.980;2022-12-16T02:29:36;40.58;;;27.33;;
55053;SDS011;40954;45.668;18.980;2022-12-16T02:34:31;38.60;;;27.13;;
55053;SDS011;40954;45.668;18.980;2022-12-16T02:39:30;34.00;;;24.88;;
55053;SDS011;40954;45.668;18.980;2022-12-16T02:44:28;37.53;;;25.48;;
55053;SDS011;40954;45.668;18.980;2022-12-16T02:46:58;34.58;;;24.27;;
55053;SDS011;40954;45.668;18.980;2022-12-16T02:51:50;32.47;;;23.45;;
55053;SDS011;40954;45.668;18.980;2022-12-16T02:54:16;34.35;;;24.73;;
55053;SDS011;40954;45.668;18.980;2022-12-16T02:59:14;36.42;;;24.80;;
55053;SDS011;40954;45.668;18.980;2022-12-16T03:04:30;36.50;;;25.23;;
55053;SDS011;40954;45.668;18.980;2022-12-16T03:07:02;34.38;;;23.92;;
55053;SDS011;40954;45.668;18.980;2022-12-16T03:09:32;36.65;;;25.73;;
55053;SDS011;40954;45.668;18.980;2022-12-16T03:12:02;42.53;;;28.80;;
55053;SDS011;40954;45.668;18.980;2022-12-16T03:14:31;34.58;;;24.42;;
55053;SDS011;40954;45.668;18.980;2022-12-16T03:16:59;38.50;;;25.23;;
55053;SDS011;40954;45.668;18.980;2022-12-16T03:19:27;32.67;;;23.00;;
55053;SDS011;40954;45.668;18.980;2022-12-16T03:21:57;32.45;;;21.95;;
55053;SDS011;40954;45.668;18.980;2022-12-16T03:24:24;34.40;;;23.92;;
55053;SDS011;40954;45.668;18.980;2022-12-16T03:26:55;37.25;;;24.80;;
55053;SDS011;40954;45.668;18.980;2022-12-16T03:29:24;36.65;;;24.15;;
55053;SDS011;40954;45.668;18.980;2022-12-16T03:31:56;39.58;;;25.90;;
55053;SDS011;40954;45.668;18.980;2022-12-16T03:34:36;39.60;;;25.37;;
55053;SDS011;40954;45.668;18.980;2022-12-16T03:37:07;38.87;;;26.00;;
55053;SDS011;40954;45.668;18.980;2022-12-16T03:39:35;39.40;;;24.98;;
55053;SDS011;40954;45.668;18.980;2022-12-16T03:42:03;36.20;;;23.83;;
55053;SDS011;40954;45.668;18.980;2022-12-16T03:44:30;33.67;;;22.48;;
55053;SDS011;40954;45.668;18.980;2022-12-16T03:46:57;37.03;;;24.42;;
55053;SDS011;40954;45.668;18.980;2022-12-16T03:49:23;34.35;;;23.55;;
55053;SDS011;40954;45.668;18.980;2022-12-16T03:51:50;33.22;;;22.90;;
55053;SDS011;40954;45.668;18.980;2022-12-16T03:54:16;32.17;;;21.90;;
55053;SDS011;40954;45.668;18.980;2022-12-16T03:56:43;33.10;;;22.70;;
55053;SDS011;40954;45.668;18.980;2022-12-16T03:59:09;32.60;;;23.35;;
55053;SDS011;40954;45.668;18.980;2022-12-16T04:01:35;28.77;;;20.65;;
55053;SDS011;40954;45.668;18.980;2022-12-16T04:04:02;28.73;;;20.90;;
55053;SDS011;40954;45.668;18.980;2022-12-16T04:06:28;30.67;;;20.80;;
55053;SDS011;40954;45.668;18.980;2022-12-16T04:08:54;33.88;;;22.77;;
55053;SDS011;40954;45.668;18.980;2022-12-16T04:11:20;28.13;;;19.83;;
55053;SDS011;40954;45.668;18.980;2022-12-16T04:14:04;29.98;;;21.48;;
55053;SDS011;40954;45.668;18.980;2022-12-16T04:16:49;25.70;;;20.02;;
55053;SDS011;40954;45.668;18.980;2022-12-16T04:19:35;29.65;;;20.83;;
55053;SDS011;40954;45.668;18.980;2022-12-16T04:22:24;33.85;;;23.35;;
55053;SDS011;40954;45.668;18.980;2022-12-16T04:25:11;31.00;;;21.77;;
55053;SDS011;40954;45.668;18.980;2022-12-16T04:27:38;30.05;;;21.02;;
55053;SDS011;40954;45.668;18.980;2022-12-16T04:30:04;32.40;;;21.98;;
55053;SDS011;40954;45.668;18.980;2022-12-16T04:32:43;30.23;;;20.75;;
55053;SDS011;40954;45.668;18.980;2022-12-16T04:35:28;30.10;;;20.63;;
55053;SDS011;40954;45.668;18.980;2022-12-16T04:38:12;26.77;;;20.38;;
55053;SDS011;40954;45.668;18.980;2022-12-16T04:40:57;29.10;;;21.17;;
55053;SDS011;40954;45.668;18.980;2022-12-16T04:43:42;28.83;;;21.02;;
55053;SDS011;40954;45.668;18.980;2022-12-16T04:46:26;27.13;;;21.10;;
55053;SDS011;40954;45.668;18.980;2022-12-16T04:49:11;31.38;;;22.73;;
55053;SDS011;40954;45.668;18.980;2022-12-16T04:51:56;37.38;;;22.60;;
55053;SDS011;40954;45.668;18.980;2022-12-16T04:54:40;31.75;;;24.23;;
55053;SDS011;40954;45.668;18.980;2022-12-16T04:57:25;28.85;;;21.83;;
55053;SDS011;40954;45.668;18.980;2022-12-16T05:00:10;46.00;;;26.52;;
55053;SDS011;40954;45.668;18.980;2022-12-16T05:02:55;77.20;;;36.90;;
55053;SDS011;40954;45.668;18.980;2022-12-16T05:05:40;47.28;;;35.10;;
55053;SDS011;40954;45.668;18.980;2022-12-16T05:08:25;39.25;;;26.00;;
55053;SDS011;40954;45.668;18.980;2022-12-16T05:11:09;33.03;;;24.35;;
55053;SDS011;40954;45.668;18.980;2022-12-16T05:13:54;37.17;;;26.48;;
55053;SDS011;40954;45.668;18.980;2022-12-16T05:16:38;40.35;;;26.92;;
55053;SDS011;40954;45.668;18.980;2022-12-16T05:19:23;43.65;;;28.60;;
55053;SDS011;40954;45.668;18.980;2022-12-16T05:22:07;44.25;;;28.58;;
55053;SDS011;40954;45.668;18.980;2022-12-16T05:24:52;41.15;;;28.85;;
55053;SDS011;40954;45.668;18.980;2022-12-16T05:27:36;46.72;;;30.50;;
55053;SDS011;40954;45.668;18.980;2022-12-16T05:30:21;49.35;;;32.05;;
55053;SDS011;40954;45.668;18.980;2022-12-16T05:33:06;49.85;;;30.95;;
55053;SDS011;40954;45.668;18.980;2022-12-16T05:35:50;44.60;;;29.30;;
55053;SDS011;40954;45.668;18.980;2022-12-16T05:38:35;47.53;;;32.85;;
55053;SDS011;40954;45.668;18.980;2022-12-16T05:41:19;61.33;;;43.45;;
55053;SDS011;40954;45.668;18.980;2022-12-16T05:44:04;54.45;;;37.10;;
55053;SDS011;40954;45.668;18.980;2022-12-16T05:46:48;49.83;;;31.58;;
55053;SDS011;40954;45.668;18.980;2022-12-16T05:49:33;44.92;;;30.05;;
55053;SDS011;40954;45.668;18.980;2022-12-16T05:52:17;45.10;;;28.98;;
55053;SDS011;40954;45.668;18.980;2022-12-16T05:55:02;45.17;;;29.75;;
55053;SDS011;40954;45.668;18.980;2022-12-16T05:57:50;43.33;;;29.92;;
55053;SDS011;40954;45.668;18.980;2022-12-16T06:00:35;45.05;;;30.40;;
55053;SDS011;40954;45.668;18.980;2022-12-16T06:03:20;51.63;;;34.45;;
55053;SDS011;40954;45.668;18.980;2022-12-16T06:06:04;58.90;;;37.60;;
55053;SDS011;40954;45.668;18.980;2022-12-16T06:08:49;53.88;;;35.30;;
55053;SDS011;40954;45.668;18.980;2022-12-16T06:11:34;58.63;;;38.45;;
55053;SDS011;40954;45.668;18.980;2022-12-16T06:14:19;61.05;;;38.60;;
55053;SDS011;40954;45.668;18.980;2022-12-16T06:17:03;75.43;;;45.33;;
55053;SDS011;40954;45.668;18.980;2022-12-16T06:19:48;63.67;;;40.03;;
55053;SDS011;40954;45.668;18.980;2022-12-16T06:22:32;57.42;;;36.95;;
55053;SDS011;40954;45.668;18.980;2022-12-16T06:25:17;56.40;;;36.03;;
55053;SDS011;40954;45.668;18.980;2022-12-16T06:28:01;60.42;;;38.60;;
55053;SDS011;40954;45.668;18.980;2022-12-16T06:30:46;60.28;;;38.40;;
55053;SDS011;40954;45.668;18.980;2022-12-16T06:33:31;60.90;;;37.63;;
55053;SDS011;40954;45.668;18.980;2022-12-16T06:36:15;62.45;;;38.78;;
55053;SDS011;40954;45.668;18.980;2022-12-16T06:39:00;64.38;;;41.40;;
55053;SDS011;40954;45.668;18.980;2022-12-16T06:41:45;72.82;;;47.22;;
55053;SDS011;40954;45.668;18.980;2022-12-16T06:44:29;78.90;;;47.83;;
55053;SDS011;40954;45.668;18.980;2022-12-16T06:47:14;74.07;;;46.08;;
55053;SDS011;40954;45.668;18.980;2022-12-16T06:49:58;70.88;;;42.95;;
55053;SDS011;40954;45.668;18.980;2022-12-16T06:52:43;70.63;;;41.72;;
55053;SDS011;40954;45.668;18.980;2022-12-16T06:55:27;69.97;;;44.92;;
55053;SDS011;40954;45.668;18.980;2022-12-16T06:58:12;64.55;;;41.92;;
55053;SDS011;40954;45.668;18.980;2022-12-16T07:00:56;73.88;;;47.90;;
55053;SDS011;40954;45.668;18.980;2022-12-16T07:03:41;77.03;;;47.45;;
55053;SDS011;40954;45.668;18.980;2022-12-16T07:06:26;69.03;;;43.65;;
55053;SDS011;40954;45.668;18.980;2022-12-16T07:09:10;64.63;;;41.60;;
55053;SDS011;40954;45.668;18.980;2022-12-16T07:11:55;72.78;;;44.85;;
55053;SDS011;40954;45.668;18.980;2022-12-16T07:14:39;69.45;;;43.13;;
55053;SDS011;40954;45.668;18.980;2022-12-16T07:17:24;71.55;;;44.33;;
55053;SDS011;40954;45.668;18.980;2022-12-16T07:20:09;73.63;;;45.88;;
55053;SDS011;40954;45.668;18.980;2022-12-16T07:22:53;69.55;;;43.28;;
55053;SDS011;40954;45.668;18.980;2022-12-16T07:25:38;80.63;;;47.42;;
55053;SDS011;40954;45.668;18.980;2022-12-16T07:28:22;64.30;;;41.38;;
55053;SDS011;40954;45.668;18.980;2022-12-16T07:31:07;73.95;;;44.90;;
55053;SDS011;40954;45.668;18.980;2022-12-16T07:33:52;77.50;;;49.38;;
55053;SDS011;40954;45.668;18.980;2022-12-16T07:36:36;86.80;;;53.00;;
55053;SDS011;40954;45.668;18.980;2022-12-16T07:39:21;86.43;;;53.45;;
55053;SDS011;40954;45.668;18.980;2022-12-16T07:42:05;83.10;;;50.72;;
55053;SDS011;40954;45.668;18.980;2022-12-16T07:44:50;70.10;;;43.25;;
55053;SDS011;40954;45.668;18.980;2022-12-16T07:47:35;80.40;;;50.22;;
55053;SDS011;40954;45.668;18.980;2022-12-16T07:50:19;80.15;;;51.65;;
55053;SDS011;40954;45.668;18.980;2022-12-16T07:53:04;91.10;;;55.75;;
55053;SDS011;40954;45.668;18.980;2022-12-16T07:55:48;65.13;;;43.55;;
55053;SDS011;40954;45.668;18.980;2022-12-16T07:58:33;60.58;;;38.80;;
55053;SDS011;40954;45.668;18.980;2022-12-16T08:01:17;57.42;;;35.70;;
55053;SDS011;40954;45.668;18.980;2022-12-16T08:04:02;49.50;;;32.28;;
55053;SDS011;40954;45.668;18.980;2022-12-16T08:06:46;53.90;;;33.95;;
55053;SDS011;40954;45.668;18.980;2022-12-16T08:09:51;55.92;;;34.17;;
55053;SDS011;40954;45.668;18.980;2022-12-16T08:12:35;55.05;;;34.17;;
55053;SDS011;40954;45.668;18.980;2022-12-16T08:15:20;57.13;;;37.72;;
55053;SDS011;40954;45.668;18.980;2022-12-16T08:18:05;68.30;;;42.40;;
55053;SDS011;40954;45.668;18.980;2022-12-16T08:20:50;74.78;;;47.17;;
55053;SDS011;40954;45.668;18.980;2022-12-16T08:23:34;75.13;;;46.63;;
55053;SDS011;40954;45.668;18.980;2022-12-16T08:26:18;72.75;;;42.53;;
55053;SDS011;40954;45.668;18.980;2022-12-16T08:29:03;63.60;;;39.95;;
55053;SDS011;40954;45.668;18.980;2022-12-16T08:31:48;66.90;;;40.40;;
55053;SDS011;40954;45.668;18.980;2022-12-16T08:34:32;60.85;;;38.80;;
55053;SDS011;40954;45.668;18.980;2022-12-16T08:37:17;57.25;;;36.63;;
55053;SDS011;40954;45.668;18.980;2022-12-16T08:40:02;57.97;;;34.80;;
55053;SDS011;40954;45.668;18.980;2022-12-16T08:42:46;59.05;;;37.50;;
55053;SDS011;40954;45.668;18.980;2022-12-16T08:45:31;58.22;;;36.95;;
55053;SDS011;40954;45.668;18.980;2022-12-16T08:48:16;53.85;;;36.45;;
55053;SDS011;40954;45.668;18.980;2022-12-16T08:51:02;63.53;;;41.08;;
55053;SDS011;40954;45.668;18.980;2022-12-16T08:53:46;53.22;;;36.30;;
55053;SDS011;40954;45.668;18.980;2022-12-16T08:56:31;59.05;;;37.15;;
55053;SDS011;40954;45.668;18.980;2022-12-16T08:59:29;54.63;;;37.05;;
55053;SDS011;40954;45.668;18.980;2022-12-16T09:02:14;57.45;;;38.03;;
55053;SDS011;40954;45.668;18.980;2022-12-16T09:04:59;56.28;;;34.40;;
55053;SDS011;40954;45.668;18.980;2022-12-16T09:07:43;57.45;;;37.03;;
55053;SDS011;40954;45.668;18.980;2022-12-16T09:10:28;52.45;;;36.45;;
55053;SDS011;40954;45.668;18.980;2022-12-16T09:13:13;59.40;;;39.30;;
55053;SDS011;40954;45.668;18.980;2022-12-16T09:15:58;56.58;;;37.10;;
55053;SDS011;40954;45.668;18.980;2022-12-16T09:18:43;55.45;;;37.17;;
55053;SDS011;40954;45.668;18.980;2022-12-16T09:21:29;57.55;;;40.50;;
55053;SDS011;40954;45.668;18.980;2022-12-16T09:24:13;57.30;;;37.75;;
55053;SDS011;40954;45.668;18.980;2022-12-16T09:26:58;60.75;;;39.30;;
55053;SDS011;40954;45.668;18.980;2022-12-16T09:29:42;59.05;;;39.80;;
55053;SDS011;40954;45.668;18.980;2022-12-16T09:32:27;60.88;;;44.05;;
55053;SDS011;40954;45.668;18.980;2022-12-16T09:35:11;64.10;;;42.17;;
55053;SDS011;40954;45.668;18.980;2022-12-16T09:37:56;59.03;;;39.58;;
55053;SDS011;40954;45.668;18.980;2022-12-16T09:40:41;64.22;;;41.13;;
55053;SDS011;40954;45.668;18.980;2022-12-16T09:46:19;54.67;;;36.72;;
55053;SDS011;40954;45.668;18.980;2022-12-16T09:51:56;49.28;;;34.95;;
55053;SDS011;40954;45.668;18.980;2022-12-16T09:54:43;58.47;;;38.05;;
55053;SDS011;40954;45.668;18.980;2022-12-16T09:57:28;50.28;;;34.15;;
55053;SDS011;40954;45.668;18.980;2022-12-16T10:00:21;52.17;;;33.28;;
55053;SDS011;40954;45.668;18.980;2022-12-16T10:03:49;47.88;;;30.73;;
55053;SDS011;40954;45.668;18.980;2022-12-16T10:09:38;40.78;;;28.05;;
55053;SDS011;40954;45.668;18.980;2022-12-16T10:12:29;39.17;;;28.45;;
55053;SDS011;40954;45.668;18.980;2022-12-16T10:15:18;41.22;;;28.02;;
55053;SDS011;40954;45.668;18.980;2022-12-16T10:21:06;40.15;;;27.30;;
55053;SDS011;40954;45.668;18.980;2022-12-16T10:29:41;47.42;;;31.63;;
55053;SDS011;40954;45.668;18.980;2022-12-16T10:32:31;49.17;;;31.50;;
55053;SDS011;40954;45.668;18.980;2022-12-16T10:35:24;44.63;;;31.63;;
55053;SDS011;40954;45.668;18.980;2022-12-16T10:38:14;40.35;;;31.90;;
55053;SDS011;40954;45.668;18.980;2022-12-16T10:41:02;50.47;;;36.65;;
55053;SDS011;40954;45.668;18.980;2022-12-16T10:43:47;49.05;;;33.88;;
55053;SDS011;40954;45.668;18.980;2022-12-16T10:46:33;46.35;;;32.72;;
55053;SDS011;40954;45.668;18.980;2022-12-16T10:49:19;45.38;;;33.13;;
55053;SDS011;40954;45.668;18.980;2022-12-16T10:52:05;58.33;;;41.17;;
55053;SDS011;40954;45.668;18.980;2022-12-16T11:00:48;78.63;;;51.67;;
55053;SDS011;40954;45.668;18.980;2022-12-16T11:03:34;104.45;;;66.43;;
55053;SDS011;40954;45.668;18.980;2022-12-16T11:06:24;95.93;;;61.78;;
55053;SDS011;40954;45.668;18.980;2022-12-16T11:09:29;112.55;;;72.28;;
55053;SDS011;40954;45.668;18.980;2022-12-16T11:12:21;104.55;;;73.18;;
55053;SDS011;40954;45.668;18.980;2022-12-16T11:15:28;101.78;;;71.55;;
55053;SDS011;40954;45.668;18.980;2022-12-16T11:18:15;87.65;;;59.35;;
55053;SDS011;40954;45.668;18.980;2022-12-16T11:21:19;78.70;;;56.50;;
55053;SDS011;40954;45.668;18.980;2022-12-16T11:24:15;84.20;;;57.83;;
55053;SDS011;40954;45.668;18.980;2022-12-16T11:27:01;81.90;;;57.92;;
55053;SDS011;40954;45.668;18.980;2022-12-16T11:32:34;79.57;;;57.00;;
55053;SDS011;40954;45.668;18.980;2022-12-16T11:35:21;66.93;;;48.53;;
55053;SDS011;40954;45.668;18.980;2022-12-16T11:38:10;60.72;;;43.88;;
55053;SDS011;40954;45.668;18.980;2022-12-16T11:40:57;46.42;;;36.28;;
55053;SDS011;40954;45.668;18.980;2022-12-16T11:43:42;48.72;;;34.85;;
55053;SDS011;40954;45.668;18.980;2022-12-16T11:46:29;52.92;;;38.55;;
55053;SDS011;40954;45.668;18.980;2022-12-16T11:49:16;45.33;;;35.15;;
55053;SDS011;40954;45.668;18.980;2022-12-16T11:52:03;56.45;;;40.75;;
55053;SDS011;40954;45.668;18.980;2022-12-16T11:54:52;46.35;;;36.88;;
55053;SDS011;40954;45.668;18.980;2022-12-16T12:00:43;61.75;;;47.90;;
55053;SDS011;40954;45.668;18.980;2022-12-16T12:03:30;61.45;;;46.15;;
55053;SDS011;40954;45.668;18.980;2022-12-16T12:06:42;56.75;;;41.97;;
55053;SDS011;40954;45.668;18.980;2022-12-16T12:09:28;48.33;;;36.35;;
55053;SDS011;40954;45.668;18.980;2022-12-16T12:12:15;41.33;;;30.33;;
55053;SDS011;40954;45.668;18.980;2022-12-16T12:17:51;40.53;;;32.30;;
55053;SDS011;40954;45.668;18.980;2022-12-16T12:26:30;34.63;;;30.25;;
55053;SDS011;40954;45.668;18.980;2022-12-16T12:35:37;34.88;;;28.45;;
55053;SDS011;40954;45.668;18.980;2022-12-16T12:41:18;26.48;;;23.63;;
55053;SDS011;40954;45.668;18.980;2022-12-16T12:44:14;27.85;;;23.67;;
55053;SDS011;40954;45.668;18.980;2022-12-16T12:47:02;29.20;;;26.00;;
55053;SDS011;40954;45.668;18.980;2022-12-16T12:53:04;46.20;;;35.78;;
55053;SDS011;40954;45.668;18.980;2022-12-16T12:56:33;41.45;;;32.35;;
55053;SDS011;40954;45.668;18.980;2022-12-16T12:58:51;44.35;;;32.67;;
55053;SDS011;40954;45.668;18.980;2022-12-16T13:01:36;37.60;;;27.15;;
55053;SDS011;40954;45.668;18.980;2022-12-16T13:04:24;37.70;;;30.38;;
55053;SDS011;40954;45.668;18.980;2022-12-16T13:07:11;44.05;;;37.25;;
55053;SDS011;40954;45.668;18.980;2022-12-16T13:10:29;45.22;;;36.13;;
55053;SDS011;40954;45.668;18.980;2022-12-16T13:15:58;46.45;;;38.65;;
55053;SDS011;40954;45.668;18.980;2022-12-16T13:18:43;45.85;;;36.53;;
55053;SDS011;40954;45.668;18.980;2022-12-16T13:27:13;45.72;;;33.13;;
55053;SDS011;40954;45.668;18.980;2022-12-16T13:32:57;42.67;;;33.28;;
55053;SDS011;40954;45.668;18.980;2022-12-16T13:35:57;43.53;;;31.50;;
55053;SDS011;40954;45.668;18.980;2022-12-16T13:38:44;37.90;;;31.10;;
55053;SDS011;40954;45.668;18.980;2022-12-16T13:44:52;44.97;;;37.70;;
55053;SDS011;40954;45.668;18.980;2022-12-16T13:50:35;53.17;;;39.95;;
55053;SDS011;40954;45.668;18.980;2022-12-16T13:53:30;63.63;;;47.13;;
55053;SDS011;40954;45.668;18.980;2022-12-16T13:56:17;52.90;;;41.45;;
55053;SDS011;40954;45.668;18.980;2022-12-16T13:59:04;72.97;;;52.97;;
55053;SDS011;40954;45.668;18.980;2022-12-16T14:01:53;57.03;;;42.33;;
55053;SDS011;40954;45.668;18.980;2022-12-16T14:04:42;53.50;;;38.15;;
55053;SDS011;40954;45.668;18.980;2022-12-16T14:07:30;47.22;;;33.53;;
55053;SDS011;40954;45.668;18.980;2022-12-16T14:10:37;52.63;;;29.33;;
55053;SDS011;40954;45.668;18.980;2022-12-16T14:13:26;47.05;;;29.65;;
55053;SDS011;40954;45.668;18.980;2022-12-16T14:25:06;44.58;;;31.85;;
55053;SDS011;40954;45.668;18.980;2022-12-16T14:27:56;51.30;;;31.77;;
55053;SDS011;40954;45.668;18.980;2022-12-16T14:30:41;45.60;;;30.45;;
55053;SDS011;40954;45.668;18.980;2022-12-16T14:33:27;49.28;;;33.60;;
55053;SDS011;40954;45.668;18.980;2022-12-16T14:39:02;76.82;;;50.25;;
55053;SDS011;40954;45.668;18.980;2022-12-16T14:41:57;49.58;;;38.53;;
55053;SDS011;40954;45.668;18.980;2022-12-16T14:44:46;54.45;;;38.70;;
55053;SDS011;40954;45.668;18.980;2022-12-16T14:47:31;81.15;;;55.03;;
55053;SDS011;40954;45.668;18.980;2022-12-16T14:50:20;81.72;;;54.85;;
55053;SDS011;40954;45.668;18.980;2022-12-16T14:53:22;56.20;;;42.38;;
55053;SDS011;40954;45.668;18.980;2022-12-16T14:59:16;74.25;;;58.13;;
55053;SDS011;40954;45.668;18.980;2022-12-16T15:02:35;52.85;;;40.25;;
55053;SDS011;40954;45.668;18.980;2022-12-16T15:05:16;56.38;;;42.58;;
55053;SDS011;40954;45.668;18.980;2022-12-16T15:08:01;59.70;;;44.92;;
55053;SDS011;40954;45.668;18.980;2022-12-16T15:10:45;57.67;;;39.95;;
55053;SDS011;40954;45.668;18.980;2022-12-16T15:13:30;68.32;;;40.03;;
55053;SDS011;40954;45.668;18.980;2022-12-16T15:16:18;51.42;;;35.47;;
55053;SDS011;40954;45.668;18.980;2022-12-16T15:19:07;52.50;;;33.70;;
55053;SDS011;40954;45.668;18.980;2022-12-16T15:21:58;48.63;;;35.67;;
55053;SDS011;40954;45.668;18.980;2022-12-16T15:24:43;55.28;;;35.97;;
55053;SDS011;40954;45.668;18.980;2022-12-16T15:27:35;50.55;;;32.92;;
55053;SDS011;40954;45.668;18.980;2022-12-16T15:30:33;52.63;;;35.40;;
55053;SDS011;40954;45.668;18.980;2022-12-16T15:33:19;60.58;;;36.40;;
55053;SDS011;40954;45.668;18.980;2022-12-16T15:36:04;56.75;;;41.97;;
55053;SDS011;40954;45.668;18.980;2022-12-16T15:38:49;59.92;;;45.17;;
55053;SDS011;40954;45.668;18.980;2022-12-16T15:41:54;52.25;;;39.28;;
55053;SDS011;40954;45.668;18.980;2022-12-16T15:44:43;51.63;;;35.88;;
55053;SDS011;40954;45.668;18.980;2022-12-16T15:50:14;53.03;;;36.45;;
55053;SDS011;40954;45.668;18.980;2022-12-16T15:55:59;58.92;;;39.97;;
55053;SDS011;40954;45.668;18.980;2022-12-16T16:02:04;60.95;;;46.17;;
55053;SDS011;40954;45.668;18.980;2022-12-16T16:04:51;62.65;;;42.90;;
55053;SDS011;40954;45.668;18.980;2022-12-16T16:07:36;64.18;;;45.47;;
55053;SDS011;40954;45.668;18.980;2022-12-16T16:10:22;57.40;;;42.95;;
55053;SDS011;40954;45.668;18.980;2022-12-16T16:13:08;59.10;;;41.75;;
55053;SDS011;40954;45.668;18.980;2022-12-16T16:15:53;57.50;;;43.00;;
55053;SDS011;40954;45.668;18.980;2022-12-16T16:18:38;64.47;;;45.28;;
55053;SDS011;40954;45.668;18.980;2022-12-16T16:21:23;59.40;;;42.72;;
55053;SDS011;40954;45.668;18.980;2022-12-16T16:24:21;62.17;;;40.65;;
55053;SDS011;40954;45.668;18.980;2022-12-16T16:27:07;67.50;;;43.05;;
55053;SDS011;40954;45.668;18.980;2022-12-16T16:29:54;61.65;;;44.80;;
55053;SDS011;40954;45.668;18.980;2022-12-16T16:32:39;65.82;;;47.33;;
55053;SDS011;40954;45.668;18.980;2022-12-16T16:35:23;56.60;;;39.53;;
55053;SDS011;40954;45.668;18.980;2022-12-16T16:38:09;55.80;;;38.45;;
55053;SDS011;40954;45.668;18.980;2022-12-16T16:40:58;57.83;;;38.35;;
55053;SDS011;40954;45.668;18.980;2022-12-16T16:43:43;58.05;;;41.13;;
55053;SDS011;40954;45.668;18.980;2022-12-16T16:46:37;50.55;;;36.55;;
55053;SDS011;40954;45.668;18.980;2022-12-16T16:49:44;53.75;;;36.28;;
55053;SDS011;40954;45.668;18.980;2022-12-16T16:52:27;49.88;;;35.83;;
55053;SDS011;40954;45.668;18.980;2022-12-16T16:55:22;54.03;;;37.10;;
55053;SDS011;40954;45.668;18.980;2022-12-16T16:58:11;54.28;;;37.95;;
55053;SDS011;40954;45.668;18.980;2022-12-16T17:00:57;51.28;;;36.72;;
55053;SDS011;40954;45.668;18.980;2022-12-16T17:03:42;49.80;;;35.88;;
55053;SDS011;40954;45.668;18.980;2022-12-16T17:06:26;49.72;;;35.05;;
55053;SDS011;40954;45.668;18.980;2022-12-16T17:09:11;65.88;;;44.40;;
55053;SDS011;40954;45.668;18.980;2022-12-16T17:11:56;53.67;;;38.30;;
55053;SDS011;40954;45.668;18.980;2022-12-16T17:14:40;48.47;;;35.60;;
55053;SDS011;40954;45.668;18.980;2022-12-16T17:17:25;63.47;;;43.17;;
55053;SDS011;40954;45.668;18.980;2022-12-16T17:20:13;56.50;;;38.33;;
55053;SDS011;40954;45.668;18.980;2022-12-16T17:22:59;50.53;;;37.08;;
55053;SDS011;40954;45.668;18.980;2022-12-16T17:25:44;58.47;;;41.08;;
55053;SDS011;40954;45.668;18.980;2022-12-16T17:28:28;55.80;;;37.53;;
55053;SDS011;40954;45.668;18.980;2022-12-16T17:31:13;51.30;;;38.38;;
55053;SDS011;40954;45.668;18.980;2022-12-16T17:33:57;54.20;;;37.63;;
55053;SDS011;40954;45.668;18.980;2022-12-16T17:36:42;49.00;;;35.42;;